Coloma, MI (49039)

6:36 AM EDT on August 26, 2016 (GMT -0400)
East Paw Paw Lake | | Change Station
Active Advisory: Special Statement

Elev 663 ft 42.21 °N, 86.25 °W | Updated 1 minute ago

Clear
Clear
62.0 °F
Feels Like 62.0 °F
N
0.0
Wind Variable Wind from NNW
Gusts 0.0 mph

Today
High -- | Low -- °F
--% Chance of Precip.
Yesterday
High -- | Low -- °F
Precip. -- in
Pressure 30.09 in
Visibility 7.0 miles
Clouds Clear
Dew Point 61 °F
Humidity 98%
Rainfall 0.00 in
Snow Depth Not available.
7:04 AM 8:28 PM
Waning Crescent, 36% visible
METAR KBEH 260953Z AUTO 00000KT 7SM CLR 17/16 A3010 RMK AO2 SLP190 T01720156
Pressure 30.09 in
Visibility 7.0 miles
Clouds Clear
Dew Point 61 °F
Humidity 98%
Rainfall 0.00 in
Snow Depth Not available.
7:04 AM 8:28 PM
Waning Crescent, 36% visible
METAR KBEH 260953Z AUTO 00000KT 7SM CLR 17/16 A3010 RMK AO2 SLP190 T01720156

10-Day Weather Forecast

Almanac

Astronomy

Aug. 26, 2016 Rise Set
Actual Time
Civil Twilight
Nautical Twilight
Astronomical Twilight
Moon
Length of Visible Light
Length of Day
Tomorrow will be .
, % of the Moon is Illuminated

Today's Extremes

State Highs State Lows

Community

WunderPhotos

Upload Photos

1,935,069 photos uploaded!

WunderBlog® & News

Nearby

Air Quality

  Air Quality AQ Index Pollutant
Not available.

Snow Depth

Station Depth Elevation

Earthquake Activity

City Distance Mag. Time & Date
Minimum magnitude displayed is 2.5.

Coastal Water Temperatures

Place Temperature

Stations

Nearby Weather Stations

Station Location Temp. Windchill Dew Point Humidity Wind Precip. Elev Updated Type
                   

Watches & Warnings

Special Statement
Issued: 3:54 AM CDT Aug. 26, 2016 – National Weather Service

... Patchy dense fog early this morning...

Fog will continue across much of the area early this morning and
may be dense in some, mainly rural, locations. Visibilities are
expected to improve shortly after sunrise. In the meantime, people
should use extra caution when driving and be prepared to slow down
when fog banks are encountered.